Time;durP1;ratioP1;P1;durP2;ratioP2;P2;SDS_P1;SDS_P2;PMS_P1;PMS_P2;Temp;Humidity;BMP_temperature;BMP_pressure;BME280_temperature;BME280_humidity;BME280_pressure;Samples;Min_cycle;Max_cycle;Signal;HPM_P1;HPM_P2
2022/04/25 00:02:29;;;;;;;7.82;2.20;;;;;;;12.90;56.77;98598.69;7792288;32;39109;-79
2022/04/25 00:06:45;;;;;;;6.55;2.37;;;;;;;12.68;56.40;98597.66;7792142;32;40892;-80
2022/04/25 00:11:02;;;;;;;6.30;2.37;;;;;;;12.63;56.80;98599.72;7791919;32;37836;-79
2022/04/25 00:15:18;;;;;;;4.28;1.95;;;;;;;12.73;55.73;98597.53;7792311;32;36991;-79
2022/04/25 00:19:35;;;;;;;5.28;1.87;;;;;;;13.02;54.60;98592.63;7791990;32;39263;-79
2022/04/25 00:23:51;;;;;;;5.35;2.12;;;;;;;12.89;54.74;98591.63;7777750;32;39875;-80
2022/04/25 00:28:08;;;;;;;6.32;2.58;;;;;;;12.52;55.41;98590.97;7791694;32;39033;-79
2022/04/25 00:32:24;;;;;;;6.07;2.72;;;;;;;12.40;58.02;98595.09;7791645;32;37037;-79
2022/04/25 00:36:40;;;;;;;9.02;2.90;;;;;;;12.62;57.21;98587.97;7791634;32;39756;-79
2022/04/25 00:40:56;;;;;;;6.55;2.40;;;;;;;12.66;56.35;98583.50;7791498;32;39672;-81
2022/04/25 00:45:13;;;;;;;6.65;2.85;;;;;;;12.47;56.77;98585.63;7791342;32;38573;-79
2022/04/25 00:49:29;;;;;;;6.40;2.72;;;;;;;12.05;57.94;98591.34;7791327;32;37026;-81
2022/04/25 00:53:47;;;;;;;3.92;2.30;;;;;;;12.12;57.44;98593.63;7791124;32;39034;-80
2022/04/25 00:58:03;;;;;;;8.50;2.83;;;;;;;11.92;58.00;98592.22;7791090;32;39921;-80
2022/04/25 01:02:19;;;;;;;4.90;2.55;;;;;;;12.11;57.36;98608.44;7790898;32;37837;-81
2022/04/25 01:06:36;;;;;;;4.72;2.92;;;;;;;12.15;57.35;98603.94;7790844;32;36971;-81
2022/04/25 01:10:52;;;;;;;4.57;2.65;;;;;;;12.17;58.11;98629.81;7791725;32;40288;-79
2022/04/25 01:15:10;;;;;;;5.45;2.83;;;;;;;11.85;58.46;98625.38;7794434;32;39813;-79
2022/04/25 01:19:26;;;;;;;7.10;3.00;;;;;;;11.79;59.22;98623.88;7794118;32;38488;-80
2022/04/25 01:28:17;;;;;;;7.50;2.97;;;;;;;11.79;59.65;98612.97;7782419;32;39208;-81
2022/04/25 01:32:33;;;;;;;8.00;3.78;;;;;;;12.06;59.24;98611.28;7794009;32;39981;-81
2022/04/25 01:36:49;;;;;;;8.77;4.10;;;;;;;12.08;60.32;98598.91;7793858;32;38748;-80
2022/04/25 01:41:06;;;;;;;11.10;3.53;;;;;;;12.14;60.46;98589.47;7794009;32;37205;-80
2022/04/25 01:45:22;;;;;;;10.43;3.85;;;;;;;11.61;62.54;98596.44;7793894;32;39868;-81
2022/04/25 01:49:39;;;;;;;8.05;3.40;;;;;;;11.64;61.60;98609.47;7793592;32;40972;-79
2022/04/25 01:53:55;;;;;;;5.45;2.95;;;;;;;11.94;60.25;98596.25;7793604;32;38505;-80
2022/04/25 01:58:12;;;;;;;5.40;2.75;;;;;;;11.07;63.31;98600.84;7793683;32;37614;-79
2022/04/25 02:02:28;;;;;;;6.97;3.15;;;;;;;11.31;63.31;98600.63;7793740;32;39034;-79
2022/04/25 02:06:45;;;;;;;6.72;2.90;;;;;;;11.71;61.79;98589.09;7793627;32;39719;-79
2022/04/25 02:11:19;;;;;;;5.30;3.05;;;;;;;11.55;62.12;98592.19;7793395;32;38602;-79
2022/04/25 02:15:35;;;;;;;5.47;2.90;;;;;;;11.30;62.93;98587.28;7793557;32;37041;-81
2022/04/25 02:19:51;;;;;;;6.53;3.03;;;;;;;10.99;64.20;98590.69;7793419;32;39129;-80
2022/04/25 02:24:07;;;;;;;8.38;3.17;;;;;;;10.89;64.74;98583.50;7793005;32;40104;-81
2022/04/25 02:28:23;;;;;;;7.70;3.22;;;;;;;11.21;63.54;98568.94;7793246;32;37878;-80
2022/04/25 02:32:39;;;;;;;6.93;3.72;;;;;;;10.95;64.48;98565.09;7793244;32;37001;-80
2022/04/25 02:36:56;;;;;;;7.00;3.10;;;;;;;11.13;63.87;98577.81;7793218;32;39935;-80
2022/04/25 02:41:12;;;;;;;4.45;3.05;;;;;;;11.05;64.09;98576.59;7793212;32;39771;-80
2022/04/25 02:45:28;;;;;;;7.47;3.30;;;;;;;11.22;63.21;98586.91;7793149;32;38561;-80
2022/04/25 02:49:44;;;;;;;7.90;3.22;;;;;;;11.16;63.51;98609.97;7792873;32;36875;-79
2022/04/25 02:54:00;;;;;;;9.25;3.45;;;;;;;11.37;62.98;98615.00;7792983;32;39282;-79
2022/04/25 02:58:17;;;;;;;10.00;3.37;;;;;;;11.46;62.91;98611.22;7792977;32;40828;-78
2022/04/25 03:02:33;;;;;;;8.73;3.67;;;;;;;11.71;62.25;98617.25;7792774;32;37917;-79
2022/04/25 03:06:50;;;;;;;5.70;3.37;;;;;;;11.26;64.20;98630.75;7792886;32;37997;-79
2022/04/25 03:11:10;;;;;;;12.18;4.90;;;;;;;11.51;63.94;98618.50;7792912;32;39226;-81
2022/04/25 03:15:26;;;;;;;9.60;4.07;;;;;;;11.61;64.47;98631.91;7792808;32;39851;-81
2022/04/25 03:19:44;;;;;;;11.35;5.37;;;;;;;11.37;65.86;98640.34;7792710;32;37904;-80
2022/04/25 03:24:02;;;;;;;8.05;4.07;;;;;;;11.98;64.71;98635.47;7792726;32;37627;-80
2022/04/25 03:28:19;;;;;;;8.57;4.55;;;;;;;12.14;63.83;98635.94;7792894;32;38237;-79
2022/04/25 03:32:36;;;;;;;11.63;5.87;;;;;;;12.29;62.71;98642.94;7791567;32;40700;-81
2022/04/25 03:36:54;;;;;;;9.38;4.78;;;;;;;12.44;62.74;98636.28;7792540;32;38987;-79
2022/04/25 03:41:10;;;;;;;12.18;4.20;;;;;;;12.25;62.68;98643.87;7792550;32;37629;-79
2022/04/25 03:45:26;;;;;;;11.23;4.53;;;;;;;11.81;64.19;98641.59;7792476;32;39158;-79
2022/04/25 03:49:43;;;;;;;9.85;4.43;;;;;;;11.64;64.80;98630.47;7792188;32;40727;-79
2022/04/25 03:53:59;;;;;;;7.62;3.10;;;;;;;11.55;65.55;98637.78;7792161;32;37941;-79
2022/04/25 03:58:15;;;;;;;6.97;3.30;;;;;;;11.85;63.66;98633.56;7792368;32;36900;-81
2022/04/25 04:02:31;;;;;;;6.45;3.37;;;;;;;11.86;64.27;98643.38;7792216;32;39287;-81
2022/04/25 04:06:47;;;;;;;6.70;4.00;;;;;;;12.08;63.53;98650.03;7792102;32;40931;-80
2022/04/25 04:11:06;;;;;;;7.85;3.75;;;;;;;11.51;65.65;98653.16;7791897;32;38588;-80
2022/04/25 04:15:23;;;;;;;10.07;3.90;;;;;;;12.05;63.06;98651.44;7792076;32;36959;-81
2022/04/25 04:19:39;;;;;;;7.15;4.00;;;;;;;11.99;63.30;98656.22;7791957;32;39187;-80
2022/04/25 04:23:55;;;;;;;8.60;3.30;;;;;;;11.98;63.99;98656.50;7791864;32;40992;-81
2022/04/25 04:28:11;;;;;;;5.65;2.33;;;;;;;12.01;63.18;98669.56;7791648;32;38882;-81
2022/04/25 04:32:31;;;;;;;3.97;2.25;;;;;;;12.15;59.40;98678.50;7791623;32;37588;-81
2022/04/25 04:36:47;;;;;;;4.60;2.10;;;;;;;12.61;58.13;98679.31;7791656;32;40719;-81
2022/04/25 04:41:03;;;;;;;4.22;1.95;;;;;;;12.52;57.42;98687.47;7791528;32;39893;-79
2022/04/25 04:45:19;;;;;;;5.32;2.00;;;;;;;12.74;57.58;98688.56;7791116;32;37983;-80
2022/04/25 04:49:35;;;;;;;6.80;2.10;;;;;;;12.74;55.39;98689.34;7791090;32;36936;-80
2022/04/25 04:53:51;;;;;;;2.35;1.70;;;;;;;13.12;56.70;98694.41;7791083;32;39412;-81
2022/04/25 04:58:07;;;;;;;4.18;1.95;;;;;;;12.99;54.97;98699.94;7791100;32;39970;-80
2022/04/25 05:02:24;;;;;;;3.55;1.77;;;;;;;12.97;55.39;98697.53;7776924;32;37933;-81
2022/04/25 05:06:40;;;;;;;1.58;1.20;;;;;;;13.15;54.44;98698.44;7777119;32;36770;-79
2022/04/25 05:10:56;;;;;;;2.83;1.62;;;;;;;13.05;53.99;98698.69;7790824;32;39181;-81
2022/04/25 05:15:15;;;;;;;2.10;1.50;;;;;;;13.25;53.54;98705.56;7790698;32;39962;-80
2022/04/25 05:19:31;;;;;;;1.73;1.20;;;;;;;13.38;53.04;98712.06;7777028;32;38041;-79
2022/04/25 05:23:48;;;;;;;4.87;1.75;;;;;;;13.39;51.77;98719.16;7790489;32;36713;-79
2022/04/25 05:28:05;;;;;;;3.08;1.50;;;;;;;13.51;52.09;98711.94;7790408;32;39009;-79
2022/04/25 05:32:21;;;;;;;2.30;1.20;;;;;;;13.75;50.27;98716.22;7790178;32;39852;-79
2022/04/25 05:36:37;;;;;;;3.10;1.30;;;;;;;13.37;51.54;98724.94;7790075;32;38774;-81
2022/04/25 05:40:54;;;;;;;1.33;1.17;;;;;;;13.57;51.30;98718.06;7790086;32;36845;-80
2022/04/25 05:45:12;;;;;;;2.72;1.40;;;;;;;13.14;52.05;98713.22;7789972;32;38996;-80
2022/04/25 05:54:03;;;;;;;3.28;1.30;;;;;;;13.56;50.80;98724.69;7789292;32;37784;-82
2022/04/25 05:58:19;;;;;;;2.70;1.23;;;;;;;13.70;50.37;98713.63;7792179;32;37772;-79
2022/04/25 06:02:43;;;;;;;2.67;1.12;;;;;;;13.56;51.25;98718.41;7793605;32;40053;-78
2022/04/25 06:07:00;;;;;;;3.67;1.30;;;;;;;13.87;51.64;98716.38;7793522;32;40866;-82
2022/04/25 06:11:16;;;;;;;1.90;1.30;;;;;;;14.07;49.73;98712.22;7793462;32;37617;-83
2022/04/25 06:15:32;;;;;;;3.40;1.20;;;;;;;13.99;49.75;98721.25;7793592;32;37492;-81
2022/04/25 06:19:48;;;;;;;2.05;1.05;;;;;;;14.16;50.32;98716.88;7793485;32;39026;-81
2022/04/25 06:24:05;;;;;;;4.25;1.40;;;;;;;14.41;48.50;98716.09;7793266;32;40613;-80
2022/04/25 06:28:21;;;;;;;2.20;1.37;;;;;;;14.39;49.36;98717.56;7793272;32;37935;-79
2022/04/25 06:32:37;;;;;;;3.05;1.45;;;;;;;14.84;47.76;98717.19;7793220;32;37631;-74
2022/04/25 06:36:53;;;;;;;4.03;1.50;;;;;;;14.81;49.48;98729.66;7793189;32;40018;-72
2022/04/25 06:41:09;;;;;;;2.72;1.40;;;;;;;14.96;53.20;98730.25;7793019;32;40763;-74
2022/04/25 06:45:25;;;;;;;3.58;1.60;;;;;;;14.72;49.08;98737.06;7792987;32;38754;-75
2022/04/25 06:49:42;;;;;;;2.65;1.70;;;;;;;15.05;48.68;98738.47;7792907;32;36957;-77
2022/04/25 06:53:59;;;;;;;2.45;1.40;;;;;;;14.87;47.96;98743.16;7792947;32;39233;-78
2022/04/25 06:58:15;;;;;;;3.67;1.45;;;;;;;15.11;47.08;98754.44;7792911;32;39989;-76
2022/04/25 07:02:31;;;;;;;2.45;1.62;;;;;;;15.41;48.45;98740.75;7792747;32;38558;-82
2022/04/25 07:06:48;;;;;;;7.32;1.80;;;;;;;15.38;47.85;98750.47;7792869;32;38457;-75
2022/04/25 07:11:06;;;;;;;3.50;1.87;;;;;;;14.99;48.60;98748.81;7792970;32;38380;-78
2022/04/25 07:15:23;;;;;;;2.60;1.60;;;;;;;15.26;47.97;98750.31;7792608;32;39798;-78
2022/04/25 07:19:40;;;;;;;3.87;1.80;;;;;;;16.09;45.97;98743.50;7792620;32;38638;-78
2022/04/25 07:28:48;;;;;;;4.50;2.03;;;;;;;16.25;45.46;98748.41;7792490;32;39952;-79
2022/04/25 07:33:05;;;;;;;3.85;1.77;;;;;;;16.49;46.97;98748.53;7792447;32;39847;-77
2022/04/25 07:37:22;;;;;;;4.95;2.10;;;;;;;16.31;45.92;98747.84;7792430;32;38626;-79
2022/04/25 07:41:39;;;;;;;2.47;1.85;;;;;;;15.51;48.13;98753.31;7792488;32;36910;-79
2022/04/25 07:45:55;;;;;;;5.62;2.00;;;;;;;16.10;46.25;98750.59;7792325;32;39318;-77
2022/04/25 07:50:12;;;;;;;2.58;1.85;;;;;;;16.05;46.81;98752.72;7792187;32;40774;-77
2022/04/25 07:54:28;;;;;;;3.15;1.70;;;;;;;16.46;46.64;98751.94;7792200;32;37840;-77
2022/04/25 07:58:45;;;;;;;3.47;1.90;;;;;;;16.40;45.34;98761.56;7792061;32;36588;-77
2022/04/25 08:03:02;;;;;;;5.75;1.65;;;;;;;16.76;45.79;98762.84;7791708;32;39133;-78
2022/04/25 08:07:18;;;;;;;2.25;1.50;;;;;;;16.92;44.93;98765.00;7791719;32;38603;-78
2022/04/25 08:11:34;;;;;;;1.83;1.48;;;;;;;16.92;43.64;98762.25;7791498;32;37553;-77
2022/04/25 08:20:29;;;;;;;3.50;1.75;;;;;;;16.85;44.89;98771.88;7790893;32;40032;-81
2022/04/25 08:24:45;;;;;;;2.70;1.83;;;;;;;17.07;45.27;98775.38;7791628;32;41032;-78
2022/04/25 08:29:01;;;;;;;3.17;1.83;;;;;;;17.13;44.41;98782.28;7790855;32;37847;-81
2022/04/25 08:33:20;;;;;;;3.00;1.92;;;;;;;16.75;46.42;98796.19;7791670;32;36597;-79
2022/04/25 08:37:36;;;;;;;2.50;1.67;;;;;;;16.42;46.89;98792.28;7791516;32;39074;-80
2022/04/25 08:41:58;;;;;;;2.37;1.62;;;;;;;16.64;46.42;98790.31;7791504;32;40743;-80
2022/04/25 08:46:14;;;;;;;3.60;2.00;;;;;;;17.06;44.30;98793.06;7777449;32;38489;-84
2022/04/25 08:50:32;;;;;;;3.47;1.40;;;;;;;17.14;44.10;98791.34;7777281;32;37486;-76
2022/04/25 08:54:51;;;;;;;2.22;1.40;;;;;;;17.07;44.67;98783.63;7791280;32;38976;-79
2022/04/25 08:59:08;;;;;;;3.70;1.55;;;;;;;16.87;44.68;98788.84;7777577;32;40275;-78
2022/04/25 09:03:27;;;;;;;3.15;1.87;;;;;;;17.20;42.73;98790.78;7777121;32;37697;-79
2022/04/25 09:07:44;;;;;;;2.05;1.20;;;;;;;17.24;43.31;98805.47;7790335;32;37078;-79
2022/04/25 09:12:15;;;;;;;1.20;1.10;;;;;;;17.51;42.43;98806.00;7789546;32;39385;-77
2022/04/25 09:16:31;;;;;;;3.03;1.10;;;;;;;17.70;41.88;98810.97;7778101;32;40791;-81
2022/04/25 09:20:47;;;;;;;1.23;1.12;;;;;;;17.32;44.11;98808.50;7790583;32;37832;-81
2022/04/25 09:25:12;;;;;;;2.45;1.40;;;;;;;17.72;42.79;98821.66;7790629;32;36847;-80
2022/04/25 09:29:48;;;;;;;1.05;1.00;;;;;;;16.99;43.96;98823.06;7790108;32;39590;-80
2022/04/25 09:34:59;;;;;;;0.88;0.88;;;;;;;17.00;43.09;98821.94;7779118;32;41052;-84
2022/04/25 09:38:53;;;;;;;0.80;0.80;;;;;;;17.32;42.08;98833.28;7793856;32;37964;-82
2022/04/25 09:43:11;;;;;;;1.45;1.00;;;;;;;17.40;41.68;98837.88;7779864;32;36973;-79
2022/04/25 09:47:33;;;;;;;2.05;0.90;;;;;;;17.55;42.03;98837.22;7793450;32;40570;-81
2022/04/25 09:52:03;;;;;;;1.12;1.12;;;;;;;17.80;42.74;98829.03;7780047;32;40833;-78
2022/04/25 09:56:30;;;;;;;1.05;0.93;;;;;;;17.19;43.21;98847.00;7793756;32;38073;-76
2022/04/25 10:00:49;;;;;;;0.93;0.93;;;;;;;16.79;43.56;98852.19;7793206;32;36645;-79
2022/04/25 10:05:15;;;;;;;1.45;0.90;;;;;;;16.75;43.51;98857.56;7793162;32;39640;-82
2022/04/25 10:09:34;;;;;;;1.55;1.40;;;;;;;16.95;43.64;98855.16;7791268;32;40788;-74
2022/04/25 10:13:51;;;;;;;1.42;1.33;;;;;;;16.96;44.61;98863.09;7791710;32;39195;-73
2022/04/25 10:18:09;;;;;;;1.73;1.60;;;;;;;17.00;44.44;98860.47;7779157;32;36880;-76
2022/04/25 10:22:25;;;;;;;0.82;0.82;;;;;;;16.93;43.14;98868.47;7793449;32;39273;-79
2022/04/25 10:26:41;;;;;;;0.77;0.70;;;;;;;17.51;43.37;98855.59;7793315;32;40699;-81
2022/04/25 10:31:04;;;;;;;1.37;0.77;;;;;;;17.00;43.95;98863.22;7793160;32;38627;-78
2022/04/25 10:35:34;;;;;;;0.70;0.70;;;;;;;16.73;43.55;98865.37;7779454;32;37686;-79
2022/04/25 10:39:54;;;;;;;0.65;0.60;;;;;;;16.68;44.26;98871.06;7793025;32;39274;-79
2022/04/25 10:44:31;;;;;;;3.12;0.80;;;;;;;17.40;43.10;98866.25;7791988;32;40704;-80
2022/04/25 10:49:07;;;;;;;0.82;0.82;;;;;;;17.09;42.26;98866.69;7792848;32;38121;-82
2022/04/25 10:53:56;;;;;;;3.47;1.00;;;;;;;17.31;42.09;98878.50;7790294;32;37596;-79
2022/04/25 10:58:14;;;;;;;0.70;0.70;;;;;;;17.39;41.14;98870.16;7792415;32;39952;-82
2022/04/25 11:02:30;;;;;;;1.67;1.40;;;;;;;17.04;41.14;98887.00;7792344;32;39942;-84
2022/04/25 11:06:47;;;;;;;1.00;1.00;;;;;;;16.64;42.20;98903.13;7792776;32;37712;-78
2022/04/25 11:11:18;;;;;;;0.90;0.90;;;;;;;16.49;42.36;98902.59;7778754;32;36934;-81
2022/04/25 11:15:43;;;;;;;1.15;1.10;;;;;;;16.50;43.83;98912.44;7792901;32;39074;-84
2022/04/25 11:19:59;;;;;;;0.80;0.80;;;;;;;16.60;43.88;98915.94;7792781;32;40803;-80
2022/04/25 11:24:37;;;;;;;0.85;0.85;;;;;;;17.01;42.69;98909.69;7792615;32;37859;-81
2022/04/25 11:29:04;;;;;;;1.25;0.90;;;;;;;17.49;42.17;98918.53;7779123;32;35852;-80
2022/04/25 11:33:20;;;;;;;1.30;0.75;;;;;;;17.91;41.01;98917.63;7792659;32;40063;-84
2022/04/25 11:37:36;;;;;;;2.75;0.70;;;;;;;18.65;39.13;98923.16;7792652;32;39806;-82
2022/04/25 11:41:52;;;;;;;1.25;0.90;;;;;;;18.91;37.19;98917.28;7792516;32;38485;-83
2022/04/25 11:46:08;;;;;;;0.73;0.73;;;;;;;18.02;39.69;98925.13;7792643;32;36903;-83
2022/04/25 11:50:25;;;;;;;1.23;1.12;;;;;;;18.13;39.92;98930.19;7792263;32;39193;-82
2022/04/25 11:54:42;;;;;;;1.70;1.10;;;;;;;18.73;38.74;98936.84;7777574;32;39918;-85
2022/04/25 11:58:59;;;;;;;3.40;1.30;;;;;;;18.46;38.43;98935.59;7792159;32;38620;-77
2022/04/25 12:03:23;;;;;;;0.80;0.80;;;;;;;19.00;37.19;98950.28;7792266;32;37039;-82
2022/04/25 12:17:03;;;;;;;0.88;0.88;;;;;;;18.31;39.02;98950.88;7792146;32;38642;-81
2022/04/25 12:21:20;;;;;;;5.75;1.50;;;;;;;18.02;41.20;98958.22;7792057;32;37083;-81
2022/04/25 12:25:41;;;;;;;1.25;1.00;;;;;;;18.07;41.49;98959.13;7791996;32;40047;-81
2022/04/25 12:30:08;;;;;;;1.15;1.05;;;;;;;17.99;40.84;98956.13;7791932;32;39937;-82
2022/04/25 12:34:32;;;;;;;0.95;0.95;;;;;;;18.18;41.07;98960.31;7791698;32;37864;-82
2022/04/25 12:38:53;;;;;;;1.48;1.20;;;;;;;18.12;41.38;98962.44;7791743;32;36944;-85
2022/04/25 12:43:09;;;;;;;2.53;1.25;;;;;;;18.32;39.93;98958.00;7791691;32;39192;-82
2022/04/25 12:47:27;;;;;;;2.75;1.30;;;;;;;18.17;41.13;98958.69;7791488;32;39876;-83
2022/04/25 12:51:52;;;;;;;7.03;1.00;;;;;;;19.08;39.11;98958.44;7791290;32;37965;-83
2022/04/25 12:56:09;;;;;;;1.40;1.15;;;;;;;18.35;37.94;98962.84;7791334;32;36652;-85
2022/04/25 13:00:29;;;;;;;1.20;1.10;;;;;;;18.01;38.47;98973.13;7777704;32;39343;-83
2022/04/25 13:04:59;;;;;;;1.33;1.00;;;;;;;17.77;39.48;98975.81;7777838;32;40147;-83
2022/04/25 13:09:15;;;;;;;2.30;0.98;;;;;;;17.66;39.38;98983.69;7781347;32;37756;-81
2022/04/25 13:13:42;;;;;;;1.17;1.10;;;;;;;18.20;39.44;98969.03;7781283;32;36878;-81
2022/04/25 13:17:58;;;;;;;1.77;1.60;;;;;;;18.71;38.79;98977.81;7780578;32;40961;-82
2022/04/25 13:22:14;;;;;;;1.20;1.10;;;;;;;18.89;37.17;98974.81;7780141;32;40695;-83
2022/04/25 13:26:30;;;;;;;1.17;0.85;;;;;;;18.95;36.69;98977.00;7794207;32;37699;-82
2022/04/25 13:30:46;;;;;;;1.00;0.95;;;;;;;19.21;37.90;98967.47;7794213;32;36720;-83
2022/04/25 13:35:04;;;;;;;2.42;1.35;;;;;;;19.71;36.01;98962.56;7794138;32;39992;-83
2022/04/25 13:39:20;;;;;;;2.22;1.27;;;;;;;19.31;37.15;98975.28;7793983;32;40059;-83
2022/04/25 13:43:36;;;;;;;1.45;1.23;;;;;;;19.40;36.84;98960.53;7794003;32;37894;-83
2022/04/25 13:47:52;;;;;;;1.65;1.17;;;;;;;20.14;35.76;98960.97;7793847;32;37650;-79
2022/04/25 13:52:10;;;;;;;2.70;1.52;;;;;;;20.65;37.23;98960.28;7793982;32;39228;-82
2022/04/25 13:56:26;;;;;;;2.55;1.52;;;;;;;21.05;33.24;98966.72;7793815;32;39693;-83
2022/04/25 14:00:42;;;;;;;1.50;1.15;;;;;;;21.58;33.50;98958.75;7793650;32;37581;-81
2022/04/25 14:04:58;;;;;;;1.48;1.30;;;;;;;21.94;32.93;98956.66;7793693;32;36652;-81
2022/04/25 14:09:14;;;;;;;2.47;1.50;;;;;;;21.82;33.97;98965.97;7793684;32;39707;-79
2022/04/25 14:13:30;;;;;;;4.50;1.40;;;;;;;21.85;33.48;98973.56;7793529;32;39623;-81
2022/04/25 14:17:46;;;;;;;1.67;1.23;;;;;;;21.96;33.89;98970.19;7792943;32;38592;-81
2022/04/25 14:22:03;;;;;;;2.62;1.67;;;;;;;21.15;35.49;98989.13;7793472;32;36875;-80
2022/04/25 14:26:19;;;;;;;2.37;1.52;;;;;;;21.05;34.25;98983.34;7793389;32;40014;-80
2022/04/25 14:30:35;;;;;;;2.78;1.77;;;;;;;20.36;35.59;98991.97;7793312;32;40900;-83
2022/04/25 14:34:51;;;;;;;3.62;1.92;;;;;;;20.87;34.58;98982.94;7793012;32;37875;-81
2022/04/25 14:39:07;;;;;;;3.58;1.75;;;;;;;21.70;33.63;98975.25;7793173;32;37636;-81
2022/04/25 14:43:24;;;;;;;1.80;1.58;;;;;;;21.24;33.97;98988.91;7793152;32;39954;-84
2022/04/25 14:47:46;;;;;;;1.42;1.30;;;;;;;21.27;33.25;98988.19;7793120;32;39658;-81
2022/04/25 14:56:37;;;;;;;2.00;1.80;;;;;;;19.81;36.76;98991.72;7738967;32;37741;-81
2022/04/25 15:00:54;;;;;;;2.20;1.60;;;;;;;20.05;36.38;98996.31;7738971;32;40041;-80
2022/04/25 15:05:11;;;;;;;2.97;2.10;;;;;;;20.05;34.66;99002.66;7738726;32;39965;-80
2022/04/25 15:09:29;;;;;;;4.18;2.25;;;;;;;19.43;35.87;99002.09;7738715;32;37907;-82
2022/04/25 15:13:46;;;;;;;2.75;2.08;;;;;;;19.89;35.65;98997.09;7737709;32;36871;-80
2022/04/25 15:18:02;;;;;;;2.78;1.90;;;;;;;19.62;35.90;98997.88;7738758;32;39867;-79
2022/04/25 15:22:18;;;;;;;6.70;1.73;;;;;;;20.04;37.31;99009.34;7738614;32;39700;-80
2022/04/25 15:26:34;;;;;;;1.67;1.30;;;;;;;20.37;36.71;99018.47;7738474;32;38528;-79
2022/04/25 15:30:50;;;;;;;3.35;2.35;;;;;;;21.27;34.13;99021.47;7737028;32;36901;-81
2022/04/25 15:35:07;;;;;;;3.28;2.20;;;;;;;20.90;34.88;99021.00;7738409;32;39185;-80
2022/04/25 15:39:23;;;;;;;3.37;1.83;;;;;;;21.27;34.26;99042.84;7738278;32;40029;-82
2022/04/25 15:43:39;;;;;;;1.90;1.33;;;;;;;20.95;35.97;99038.13;7738225;32;38749;-80
2022/04/25 15:47:58;;;;;;;2.03;1.50;;;;;;;21.03;34.36;99041.09;7739006;32;37089;-84
2022/04/25 15:52:15;;;;;;;1.77;1.25;;;;;;;21.17;35.39;99041.41;7792450;32;39206;-82
2022/04/25 16:01:07;;;;;;;3.90;1.50;;;;;;;21.18;34.96;99048.59;7792669;32;35884;-83
2022/04/25 16:05:25;;;;;;;3.15;1.37;;;;;;;20.82;35.69;99054.06;7792001;32;37762;-83
2022/04/25 16:09:42;;;;;;;4.57;1.50;;;;;;;20.37;37.39;99057.22;7792377;32;39217;-84
2022/04/25 16:13:59;;;;;;;6.37;1.77;;;;;;;20.51;35.56;99054.84;7791799;32;38591;-82
2022/04/25 16:18:17;;;;;;;2.22;1.75;;;;;;;20.01;35.86;99057.09;7791850;32;38630;-81
2022/04/25 16:22:32;;;;;;;2.85;2.10;;;;;;;20.25;34.82;99070.00;7791840;32;37640;-81
2022/04/25 16:26:49;;;;;;;3.87;1.95;;;;;;;19.22;36.22;99067.78;7791764;32;39999;-81
2022/04/25 16:31:05;;;;;;;2.72;2.00;;;;;;;19.78;36.44;99075.38;7791808;32;40862;-79
2022/04/25 16:35:22;;;;;;;7.97;3.35;;;;;;;19.24;36.10;99060.72;7791516;32;38874;-82
2022/04/25 16:39:39;;;;;;;4.75;2.62;;;;;;;19.66;35.38;99063.19;7791136;32;36892;-82
2022/04/25 16:43:55;;;;;;;4.20;2.25;;;;;;;19.54;35.97;99062.41;7791481;32;39350;-79
2022/04/25 16:48:11;;;;;;;3.03;2.30;;;;;;;19.13;36.24;99065.94;7786387;32;148648;-79
2022/04/25 16:52:27;;;;;;;4.47;2.35;;;;;;;18.79;37.56;99077.41;7790850;32;38775;-79
2022/04/25 16:56:43;;;;;;;5.47;2.00;;;;;;;18.84;37.32;99080.00;7791195;32;37020;-81
2022/04/25 17:00:59;;;;;;;4.62;2.17;;;;;;;18.99;37.70;99086.75;7790967;32;39191;-81
2022/04/25 17:05:16;;;;;;;7.57;2.60;;;;;;;19.40;36.70;99093.19;7790792;32;39969;-81
2022/04/25 17:09:33;;;;;;;4.93;2.45;;;;;;;19.76;34.95;99086.78;7790723;32;37566;-80
2022/04/25 17:13:49;;;;;;;2.85;2.12;;;;;;;19.51;35.15;99097.09;7789723;32;37033;-79
2022/04/25 17:18:05;;;;;;;3.47;2.28;;;;;;;19.33;35.16;99102.88;7789677;32;38957;-79
2022/04/25 17:22:21;;;;;;;5.70;2.60;;;;;;;18.70;36.90;99103.16;7789473;32;40830;-80
2022/04/25 17:26:37;;;;;;;4.80;2.42;;;;;;;18.91;37.33;99105.06;7789861;32;38585;-82
2022/04/25 17:30:53;;;;;;;2.67;2.20;;;;;;;18.76;37.87;99107.34;7790277;32;36897;-82
2022/04/25 17:35:27;;;;;;;3.20;2.05;;;;;;;18.50;38.33;99113.12;7789285;32;39203;-81
